sensor_id;sensor_type;location;lat;lon;timestamp;pressure;altitude;pressure_sealevel;temperature;humidity
63287;BME280;49410;55.708;37.522;2023-02-04T00:00:16;98867.31;;;1.08;nan
63287;BME280;49410;55.708;37.522;2023-02-04T00:02:42;98870.91;;;1.08;nan
63287;BME280;49410;55.708;37.522;2023-02-04T00:05:09;98869.78;;;1.11;nan
63287;BME280;49410;55.708;37.522;2023-02-04T00:07:34;98877.59;;;1.14;nan
63287;BME280;49410;55.708;37.522;2023-02-04T00:10:00;98860.13;;;1.08;nan
63287;BME280;49410;55.708;37.522;2023-02-04T00:12:26;98885.09;;;1.11;nan
63287;BME280;49410;55.708;37.522;2023-02-04T00:14:53;98878.44;;;1.15;nan
63287;BME280;49410;55.708;37.522;2023-02-04T00:17:22;98879.81;;;1.09;nan
63287;BME280;49410;55.708;37.522;2023-02-04T00:19:47;98883.09;;;1.13;nan
63287;BME280;49410;55.708;37.522;2023-02-04T00:22:13;98882.25;;;1.12;nan
63287;BME280;49410;55.708;37.522;2023-02-04T00:24:39;98878.84;;;1.10;nan
63287;BME280;49410;55.708;37.522;2023-02-04T00:27:07;98885.78;;;1.13;nan
63287;BME280;49410;55.708;37.522;2023-02-04T00:29:33;98884.47;;;1.07;nan
63287;BME280;49410;55.708;37.522;2023-02-04T00:31:59;98880.78;;;1.08;nan
63287;BME280;49410;55.708;37.522;2023-02-04T00:34:24;98891.56;;;1.08;nan
63287;BME280;49410;55.708;37.522;2023-02-04T00:36:50;98882.31;;;1.01;nan
63287;BME280;49410;55.708;37.522;2023-02-04T00:39:15;98896.34;;;1.04;nan
63287;BME280;49410;55.708;37.522;2023-02-04T00:41:41;98886.84;;;1.00;nan
63287;BME280;49410;55.708;37.522;2023-02-04T00:44:06;98890.53;;;0.99;nan
63287;BME280;49410;55.708;37.522;2023-02-04T00:46:32;98898.66;;;1.09;nan
63287;BME280;49410;55.708;37.522;2023-02-04T00:48:57;98883.16;;;1.01;nan
63287;BME280;49410;55.708;37.522;2023-02-04T00:51:23;98904.31;;;1.06;nan
63287;BME280;49410;55.708;37.522;2023-02-04T00:53:48;98897.22;;;1.05;nan
63287;BME280;49410;55.708;37.522;2023-02-04T00:56:14;98906.63;;;1.11;nan
63287;BME280;49410;55.708;37.522;2023-02-04T00:58:39;98897.22;;;1.05;nan
63287;BME280;49410;55.708;37.522;2023-02-04T01:01:05;98898.31;;;1.02;nan
63287;BME280;49410;55.708;37.522;2023-02-04T01:03:30;98909.47;;;0.98;nan
63287;BME280;49410;55.708;37.522;2023-02-04T01:05:56;98919.25;;;0.99;nan
63287;BME280;49410;55.708;37.522;2023-02-04T01:08:21;98919.75;;;1.04;nan
63287;BME280;49410;55.708;37.522;2023-02-04T01:10:47;98913.63;;;1.02;nan
63287;BME280;49410;55.708;37.522;2023-02-04T01:13:12;98902.66;;;0.93;nan
63287;BME280;49410;55.708;37.522;2023-02-04T01:15:38;98917.06;;;1.04;nan
63287;BME280;49410;55.708;37.522;2023-02-04T01:18:04;98916.78;;;1.07;nan
63287;BME280;49410;55.708;37.522;2023-02-04T01:20:29;98887.13;;;0.86;nan
63287;BME280;49410;55.708;37.522;2023-02-04T01:22:55;98913.19;;;0.97;nan
63287;BME280;49410;55.708;37.522;2023-02-04T01:25:20;98909.75;;;0.95;nan
63287;BME280;49410;55.708;37.522;2023-02-04T01:27:46;98917.31;;;1.01;nan
63287;BME280;49410;55.708;37.522;2023-02-04T01:30:13;98923.28;;;1.04;nan
63287;BME280;49410;55.708;37.522;2023-02-04T01:32:39;98918.19;;;1.01;nan
63287;BME280;49410;55.708;37.522;2023-02-04T01:35:05;98915.72;;;0.98;nan
63287;BME280;49410;55.708;37.522;2023-02-04T01:37:30;98915.00;;;0.96;nan
63287;BME280;49410;55.708;37.522;2023-02-04T01:39:56;98940.66;;;1.12;nan
63287;BME280;49410;55.708;37.522;2023-02-04T01:42:21;98914.03;;;0.97;nan
63287;BME280;49410;55.708;37.522;2023-02-04T01:44:47;98920.00;;;1.01;nan
63287;BME280;49410;55.708;37.522;2023-02-04T01:47:12;98928.22;;;0.99;nan
63287;BME280;49410;55.708;37.522;2023-02-04T01:49:38;98944.59;;;1.07;nan
63287;BME280;49410;55.708;37.522;2023-02-04T01:52:04;98943.72;;;1.07;nan
63287;BME280;49410;55.708;37.522;2023-02-04T01:54:30;98934.44;;;1.00;nan
63287;BME280;49410;55.708;37.522;2023-02-04T01:56:56;98931.75;;;1.00;nan
63287;BME280;49410;55.708;37.522;2023-02-04T01:59:22;98944.00;;;1.04;nan
63287;BME280;49410;55.708;37.522;2023-02-04T02:01:50;98953.28;;;1.00;nan
63287;BME280;49410;55.708;37.522;2023-02-04T02:04:19;98948.25;;;1.06;nan
63287;BME280;49410;55.708;37.522;2023-02-04T02:06:56;98963.06;;;1.12;nan
63287;BME280;49410;55.708;37.522;2023-02-04T02:09:24;98966.72;;;1.11;nan
63287;BME280;49410;55.708;37.522;2023-02-04T02:11:50;98962.81;;;1.15;nan
63287;BME280;49410;55.708;37.522;2023-02-04T02:14:15;98938.00;;;1.00;nan
63287;BME280;49410;55.708;37.522;2023-02-04T02:16:41;98955.94;;;1.11;nan
63287;BME280;49410;55.708;37.522;2023-02-04T02:19:10;98958.78;;;1.10;nan
63287;BME280;49410;55.708;37.522;2023-02-04T02:21:46;98958.50;;;1.13;nan
63287;BME280;49410;55.708;37.522;2023-02-04T02:26:52;98971.75;;;1.04;nan
63287;BME280;49410;55.708;37.522;2023-02-04T02:29:17;98963.47;;;0.96;nan
63287;BME280;49410;55.708;37.522;2023-02-04T02:31:43;98968.00;;;0.96;nan
63287;BME280;49410;55.708;37.522;2023-02-04T02:34:09;98970.56;;;0.97;nan
63287;BME280;49410;55.708;37.522;2023-02-04T02:36:34;98956.59;;;0.92;nan
63287;BME280;49410;55.708;37.522;2023-02-04T02:39:00;98974.38;;;0.95;nan
63287;BME280;49410;55.708;37.522;2023-02-04T02:41:25;98986.38;;;0.90;nan
63287;BME280;49410;55.708;37.522;2023-02-04T02:43:51;98964.38;;;0.74;nan
63287;BME280;49410;55.708;37.522;2023-02-04T02:46:16;98977.47;;;0.67;nan
63287;BME280;49410;55.708;37.522;2023-02-04T02:48:42;98949.97;;;0.52;nan
63287;BME280;49410;55.708;37.522;2023-02-04T02:51:07;98955.34;;;0.52;nan
63287;BME280;49410;55.708;37.522;2023-02-04T02:53:33;98975.28;;;0.61;nan
63287;BME280;49410;55.708;37.522;2023-02-04T02:55:58;98982.03;;;0.55;nan
63287;BME280;49410;55.708;37.522;2023-02-04T02:58:30;98977.13;;;0.49;nan
63287;BME280;49410;55.708;37.522;2023-02-04T03:00:58;98971.97;;;0.46;nan
63287;BME280;49410;55.708;37.522;2023-02-04T03:03:27;99001.94;;;0.64;nan
63287;BME280;49410;55.708;37.522;2023-02-04T03:05:58;99006.34;;;0.65;nan
63287;BME280;49410;55.708;37.522;2023-02-04T03:08:25;98979.81;;;0.49;nan
63287;BME280;49410;55.708;37.522;2023-02-04T03:10:50;98988.63;;;0.63;nan
63287;BME280;49410;55.708;37.522;2023-02-04T03:13:17;99005.34;;;0.77;nan
63287;BME280;49410;55.708;37.522;2023-02-04T03:15:44;99009.63;;;0.80;nan
63287;BME280;49410;55.708;37.522;2023-02-04T03:18:12;98999.25;;;0.75;nan
63287;BME280;49410;55.708;37.522;2023-02-04T03:20:39;99002.66;;;0.77;nan
63287;BME280;49410;55.708;37.522;2023-02-04T03:23:05;99016.25;;;0.76;nan
63287;BME280;49410;55.708;37.522;2023-02-04T03:25:30;99019.56;;;0.80;nan
63287;BME280;49410;55.708;37.522;2023-02-04T03:27:57;99003.88;;;0.73;nan
63287;BME280;49410;55.708;37.522;2023-02-04T03:30:23;99005.50;;;0.76;nan
63287;BME280;49410;55.708;37.522;2023-02-04T03:32:49;99025.53;;;0.95;nan
63287;BME280;49410;55.708;37.522;2023-02-04T03:35:15;99017.84;;;0.90;nan
63287;BME280;49410;55.708;37.522;2023-02-04T03:37:40;99013.53;;;0.87;nan
63287;BME280;49410;55.708;37.522;2023-02-04T03:40:07;99023.09;;;0.91;nan
63287;BME280;49410;55.708;37.522;2023-02-04T03:42:32;99015.50;;;0.85;nan
63287;BME280;49410;55.708;37.522;2023-02-04T03:44:59;99015.75;;;0.82;nan
63287;BME280;49410;55.708;37.522;2023-02-04T03:47:24;99029.06;;;0.95;nan
63287;BME280;49410;55.708;37.522;2023-02-04T03:49:50;99020.03;;;0.85;nan
63287;BME280;49410;55.708;37.522;2023-02-04T03:52:15;99021.00;;;0.84;nan
63287;BME280;49410;55.708;37.522;2023-02-04T03:54:41;99046.56;;;0.89;nan
63287;BME280;49410;55.708;37.522;2023-02-04T03:57:06;99029.22;;;0.82;nan
63287;BME280;49410;55.708;37.522;2023-02-04T03:59:32;99044.03;;;0.88;nan
63287;BME280;49410;55.708;37.522;2023-02-04T04:01:57;99026.38;;;0.72;nan
63287;BME280;49410;55.708;37.522;2023-02-04T04:04:23;99030.06;;;0.71;nan
63287;BME280;49410;55.708;37.522;2023-02-04T04:06:48;99037.16;;;0.72;nan
63287;BME280;49410;55.708;37.522;2023-02-04T04:09:14;99036.19;;;0.73;nan
63287;BME280;49410;55.708;37.522;2023-02-04T04:11:39;99045.13;;;0.74;nan
63287;BME280;49410;55.708;37.522;2023-02-04T04:14:05;99055.63;;;0.77;nan
63287;BME280;49410;55.708;37.522;2023-02-04T04:16:30;99060.31;;;0.75;nan
63287;BME280;49410;55.708;37.522;2023-02-04T04:18:56;99064.44;;;0.79;nan
63287;BME280;49410;55.708;37.522;2023-02-04T04:21:21;99059.06;;;0.79;nan
63287;BME280;49410;55.708;37.522;2023-02-04T04:23:47;99050.00;;;0.69;nan
63287;BME280;49410;55.708;37.522;2023-02-04T04:26:12;99068.38;;;0.75;nan
63287;BME280;49410;55.708;37.522;2023-02-04T04:28:38;99063.22;;;0.72;nan
63287;BME280;49410;55.708;37.522;2023-02-04T04:31:03;99053.22;;;0.74;nan
63287;BME280;49410;55.708;37.522;2023-02-04T04:33:29;99068.00;;;0.80;nan
63287;BME280;49410;55.708;37.522;2023-02-04T04:35:54;99068.00;;;0.80;nan
63287;BME280;49410;55.708;37.522;2023-02-04T04:38:20;99063.59;;;0.79;nan
63287;BME280;49410;55.708;37.522;2023-02-04T04:40:45;99080.72;;;0.77;nan
63287;BME280;49410;55.708;37.522;2023-02-04T04:43:11;99069.97;;;0.66;nan
63287;BME280;49410;55.708;37.522;2023-02-04T04:45:36;99065.69;;;0.64;nan
63287;BME280;49410;55.708;37.522;2023-02-04T04:48:02;99073.03;;;0.73;nan
63287;BME280;49410;55.708;37.522;2023-02-04T04:50:27;99064.56;;;0.66;nan
63287;BME280;49410;55.708;37.522;2023-02-04T04:52:53;99046.22;;;0.49;nan
63287;BME280;49410;55.708;37.522;2023-02-04T04:55:18;99082.91;;;0.72;nan
63287;BME280;49410;55.708;37.522;2023-02-04T04:57:44;99060.66;;;0.59;nan
63287;BME280;49410;55.708;37.522;2023-02-04T05:00:13;99096.00;;;0.77;nan
63287;BME280;49410;55.708;37.522;2023-02-04T05:02:39;99089.03;;;0.74;nan
63287;BME280;49410;55.708;37.522;2023-02-04T05:05:05;99079.75;;;0.67;nan
63287;BME280;49410;55.708;37.522;2023-02-04T05:07:30;99087.97;;;0.66;nan
63287;BME280;49410;55.708;37.522;2023-02-04T05:09:56;99088.19;;;0.63;nan
63287;BME280;49410;55.708;37.522;2023-02-04T05:12:21;99098.97;;;0.63;nan
63287;BME280;49410;55.708;37.522;2023-02-04T05:14:47;99096.03;;;0.66;nan
63287;BME280;49410;55.708;37.522;2023-02-04T05:17:12;99098.34;;;0.70;nan
63287;BME280;49410;55.708;37.522;2023-02-04T05:19:38;99100.91;;;0.72;nan
63287;BME280;49410;55.708;37.522;2023-02-04T05:22:03;99116.56;;;0.78;nan
63287;BME280;49410;55.708;37.522;2023-02-04T05:24:29;99123.44;;;0.82;nan
63287;BME280;49410;55.708;37.522;2023-02-04T05:26:55;99117.31;;;0.80;nan
63287;BME280;49410;55.708;37.522;2023-02-04T05:29:20;99110.22;;;0.79;nan
63287;BME280;49410;55.708;37.522;2023-02-04T05:31:46;99117.19;;;0.82;nan
63287;BME280;49410;55.708;37.522;2023-02-04T05:34:11;99109.84;;;0.72;nan
63287;BME280;49410;55.708;37.522;2023-02-04T05:36:37;99117.19;;;0.70;nan
63287;BME280;49410;55.708;37.522;2023-02-04T05:39:02;99117.91;;;0.72;nan
63287;BME280;49410;55.708;37.522;2023-02-04T05:41:28;99135.91;;;0.83;nan
63287;BME280;49410;55.708;37.522;2023-02-04T05:43:53;99133.22;;;0.83;nan
63287;BME280;49410;55.708;37.522;2023-02-04T05:46:19;99131.00;;;0.88;nan
63287;BME280;49410;55.708;37.522;2023-02-04T05:48:44;99146.09;;;0.91;nan
63287;BME280;49410;55.708;37.522;2023-02-04T05:51:10;99145.72;;;0.96;nan
63287;BME280;49410;55.708;37.522;2023-02-04T05:53:35;99146.56;;;0.96;nan
63287;BME280;49410;55.708;37.522;2023-02-04T05:56:01;99154.50;;;0.98;nan
63287;BME280;49410;55.708;37.522;2023-02-04T05:58:26;99146.81;;;0.93;nan
63287;BME280;49410;55.708;37.522;2023-02-04T06:00:58;99144.09;;;0.93;nan
63287;BME280;49410;55.708;37.522;2023-02-04T06:03:24;99152.19;;;0.93;nan
63287;BME280;49410;55.708;37.522;2023-02-04T06:05:50;99150.75;;;0.89;nan
63287;BME280;49410;55.708;37.522;2023-02-04T06:08:15;99172.38;;;0.99;nan
63287;BME280;49410;55.708;37.522;2023-02-04T06:10:41;99149.75;;;0.79;nan
63287;BME280;49410;55.708;37.522;2023-02-04T06:13:06;99181.34;;;0.99;nan
63287;BME280;49410;55.708;37.522;2023-02-04T06:15:32;99180.34;;;0.89;nan
63287;BME280;49410;55.708;37.522;2023-02-04T06:17:57;99183.88;;;0.89;nan
63287;BME280;49410;55.708;37.522;2023-02-04T06:20:23;99189.25;;;0.78;nan
63287;BME280;49410;55.708;37.522;2023-02-04T06:22:48;99180.78;;;0.71;nan
63287;BME280;49410;55.708;37.522;2023-02-04T06:25:16;99177.13;;;0.61;nan
63287;BME280;49410;55.708;37.522;2023-02-04T06:27:42;99185.91;;;0.63;nan
63287;BME280;49410;55.708;37.522;2023-02-04T06:30:09;99198.03;;;0.69;nan
63287;BME280;49410;55.708;37.522;2023-02-04T06:32:34;99194.97;;;0.62;nan
63287;BME280;49410;55.708;37.522;2023-02-04T06:35:00;99190.84;;;0.69;nan
63287;BME280;49410;55.708;37.522;2023-02-04T06:37:27;99207.63;;;0.73;nan
63287;BME280;49410;55.708;37.522;2023-02-04T06:39:52;99211.91;;;0.87;nan
63287;BME280;49410;55.708;37.522;2023-02-04T06:42:19;99210.81;;;0.89;nan
63287;BME280;49410;55.708;37.522;2023-02-04T06:44:45;99215.59;;;0.97;nan
63287;BME280;49410;55.708;37.522;2023-02-04T06:47:10;99213.53;;;1.01;nan
63287;BME280;49410;55.708;37.522;2023-02-04T06:49:36;99216.38;;;1.11;nan
63287;BME280;49410;55.708;37.522;2023-02-04T06:52:02;99214.16;;;1.16;nan
63287;BME280;49410;55.708;37.522;2023-02-04T06:54:27;99216.59;;;1.19;nan
63287;BME280;49410;55.708;37.522;2023-02-04T06:56:52;99213.41;;;1.25;nan
63287;BME280;49410;55.708;37.522;2023-02-04T06:59:18;99219.19;;;1.32;nan
63287;BME280;49410;55.708;37.522;2023-02-04T07:01:43;99215.13;;;1.37;nan
63287;BME280;49410;55.708;37.522;2023-02-04T07:04:09;99234.97;;;1.48;nan
63287;BME280;49410;55.708;37.522;2023-02-04T07:06:34;99234.38;;;1.55;nan
63287;BME280;49410;55.708;37.522;2023-02-04T07:09:00;99233.03;;;1.61;nan
63287;BME280;49410;55.708;37.522;2023-02-04T07:11:25;99239.84;;;1.65;nan
63287;BME280;49410;55.708;37.522;2023-02-04T07:13:51;99241.34;;;1.69;nan
63287;BME280;49410;55.708;37.522;2023-02-04T07:16:16;99247.22;;;1.63;nan
63287;BME280;49410;55.708;37.522;2023-02-04T07:18:42;99237.91;;;1.56;nan
63287;BME280;49410;55.708;37.522;2023-02-04T07:21:07;99225.53;;;1.53;nan
63287;BME280;49410;55.708;37.522;2023-02-04T07:23:33;99242.56;;;1.65;nan
63287;BME280;49410;55.708;37.522;2023-02-04T07:25:58;99234.75;;;1.62;nan
63287;BME280;49410;55.708;37.522;2023-02-04T07:28:24;99246.22;;;1.76;nan
63287;BME280;49410;55.708;37.522;2023-02-04T07:30:50;99246.97;;;1.78;nan
63287;BME280;49410;55.708;37.522;2023-02-04T07:33:16;99258.84;;;1.86;nan
63287;BME280;49410;55.708;37.522;2023-02-04T07:35:41;99262.75;;;1.94;nan
63287;BME280;49410;55.708;37.522;2023-02-04T07:38:07;99263.22;;;1.99;nan
63287;BME280;49410;55.708;37.522;2023-02-04T07:40:33;99264.69;;;2.03;nan
63287;BME280;49410;55.708;37.522;2023-02-04T07:42:59;99265.88;;;2.10;nan
63287;BME280;49410;55.708;37.522;2023-02-04T07:45:24;99250.81;;;2.08;nan
63287;BME280;49410;55.708;37.522;2023-02-04T07:47:49;99266.84;;;2.21;nan
63287;BME280;49410;55.708;37.522;2023-02-04T07:57:32;99268.22;;;2.15;nan
63287;BME280;49410;55.708;37.522;2023-02-04T07:59:57;99272.63;;;2.16;nan
63287;BME280;49410;55.708;37.522;2023-02-04T08:02:23;99276.28;;;2.26;nan
63287;BME280;49410;55.708;37.522;2023-02-04T08:04:49;99251.56;;;2.10;nan
63287;BME280;49410;55.708;37.522;2023-02-04T08:07:15;99279.50;;;2.20;nan
63287;BME280;49410;55.708;37.522;2023-02-04T08:09:40;99269.44;;;2.22;nan
63287;BME280;49410;55.708;37.522;2023-02-04T08:12:06;99280.09;;;2.24;nan
63287;BME280;49410;55.708;37.522;2023-02-04T08:14:31;99279.56;;;2.30;nan
63287;BME280;49410;55.708;37.522;2023-02-04T08:48:29;99301.41;;;2.38;nan
63287;BME280;49410;55.708;37.522;2023-02-04T09:58:58;99325.34;;;2.31;nan
63287;BME280;49410;55.708;37.522;2023-02-04T10:01:25;99353.66;;;2.48;nan
63287;BME280;49410;55.708;37.522;2023-02-04T10:04:00;99339.09;;;2.28;nan
63287;BME280;49410;55.708;37.522;2023-02-04T10:06:26;99346.56;;;2.36;nan
63287;BME280;49410;55.708;37.522;2023-02-04T10:08:51;99346.41;;;2.38;nan
63287;BME280;49410;55.708;37.522;2023-02-04T10:11:21;99358.09;;;2.38;nan
63287;BME280;49410;55.708;37.522;2023-02-04T10:13:49;99342.91;;;2.26;nan
63287;BME280;49410;55.708;37.522;2023-02-04T10:16:28;99358.09;;;2.38;nan
63287;BME280;49410;55.708;37.522;2023-02-04T10:19:01;99346.41;;;2.38;nan
63287;BME280;49410;55.708;37.522;2023-02-04T10:21:29;99355.97;;;2.53;nan
63287;BME280;49410;55.708;37.522;2023-02-04T10:23:57;99364.41;;;2.60;nan
63287;BME280;49410;55.708;37.522;2023-02-04T10:26:26;99352.22;;;2.66;nan
63287;BME280;49410;55.708;37.522;2023-02-04T10:34:22;99373.59;;;2.69;nan
63287;BME280;49410;55.708;37.522;2023-02-04T10:36:53;99371.66;;;2.59;nan
63287;BME280;49410;55.708;37.522;2023-02-04T10:39:25;99364.53;;;2.58;nan
63287;BME280;49410;55.708;37.522;2023-02-04T10:41:52;99374.22;;;2.61;nan
63287;BME280;49410;55.708;37.522;2023-02-04T10:44:27;99374.22;;;2.61;nan
63287;BME280;49410;55.708;37.522;2023-02-04T10:47:02;99382.44;;;2.59;nan
63287;BME280;49410;55.708;37.522;2023-02-04T10:49:28;99391.88;;;2.65;nan
63287;BME280;49410;55.708;37.522;2023-02-04T10:51:54;99385.00;;;2.61;nan
63287;BME280;49410;55.708;37.522;2023-02-04T10:54:23;99399.59;;;2.70;nan
63287;BME280;49410;55.708;37.522;2023-02-04T10:57:23;99406.88;;;2.69;nan
63287;BME280;49410;55.708;37.522;2023-02-04T10:59:53;99393.66;;;2.43;nan
63287;BME280;49410;55.708;37.522;2023-02-04T11:05:00;99395.81;;;2.49;nan
63287;BME280;49410;55.708;37.522;2023-02-04T11:07:27;99407.13;;;2.55;nan
63287;BME280;49410;55.708;37.522;2023-02-04T11:09:53;99407.38;;;2.52;nan
63287;BME280;49410;55.708;37.522;2023-02-04T11:12:35;99413.03;;;2.48;nan
63287;BME280;49410;55.708;37.522;2023-02-04T11:15:01;99414.63;;;2.40;nan
63287;BME280;49410;55.708;37.522;2023-02-04T11:17:31;99410.22;;;2.39;nan
63287;BME280;49410;55.708;37.522;2023-02-04T11:19:58;99410.13;;;2.29;nan
63287;BME280;49410;55.708;37.522;2023-02-04T11:22:43;99408.88;;;2.33;nan
63287;BME280;49410;55.708;37.522;2023-02-04T11:25:35;99422.22;;;2.35;nan
63287;BME280;49410;55.708;37.522;2023-02-04T11:28:25;99419.66;;;2.22;nan
63287;BME280;49410;55.708;37.522;2023-02-04T11:31:01;99423.09;;;2.12;nan
63287;BME280;49410;55.708;37.522;2023-02-04T11:33:39;99414.41;;;1.97;nan
63287;BME280;49410;55.708;37.522;2023-02-04T11:36:08;99416.25;;;1.97;nan
63287;BME280;49410;55.708;37.522;2023-02-04T11:38:35;99424.69;;;2.15;nan
63287;BME280;49410;55.708;37.522;2023-02-04T11:41:01;99421.00;;;2.16;nan
63287;BME280;49410;55.708;37.522;2023-02-04T11:43:27;99430.47;;;2.22;nan
63287;BME280;49410;55.708;37.522;2023-02-04T11:46:03;99421.63;;;2.20;nan
63287;BME280;49410;55.708;37.522;2023-02-04T11:48:30;99432.56;;;2.29;nan
63287;BME280;49410;55.708;37.522;2023-02-04T11:50:58;99434.13;;;2.32;nan
63287;BME280;49410;55.708;37.522;2023-02-04T11:53:30;99442.97;;;2.23;nan
63287;BME280;49410;55.708;37.522;2023-02-04T11:55:56;99437.22;;;2.27;nan
63287;BME280;49410;55.708;37.522;2023-02-04T11:58:23;99443.13;;;2.32;nan
63287;BME280;49410;55.708;37.522;2023-02-04T12:00:51;99441.13;;;2.35;nan
63287;BME280;49410;55.708;37.522;2023-02-04T12:03:28;99441.75;;;2.38;nan
63287;BME280;49410;55.708;37.522;2023-02-04T12:05:55;99453.41;;;2.39;nan
63287;BME280;49410;55.708;37.522;2023-02-04T12:13:26;99471.06;;;2.31;nan
63287;BME280;49410;55.708;37.522;2023-02-04T12:16:00;99466.28;;;2.24;nan
63287;BME280;49410;55.708;37.522;2023-02-04T12:18:27;99463.81;;;2.21;nan
63287;BME280;49410;55.708;37.522;2023-02-04T12:20:54;99468.97;;;2.12;nan
63287;BME280;49410;55.708;37.522;2023-02-04T12:23:20;99477.06;;;2.12;nan
63287;BME280;49410;55.708;37.522;2023-02-04T12:25:45;99480.00;;;2.09;nan
63287;BME280;49410;55.708;37.522;2023-02-04T12:28:11;99466.00;;;1.93;nan
63287;BME280;49410;55.708;37.522;2023-02-04T12:30:36;99486.34;;;1.85;nan
63287;BME280;49410;55.708;37.522;2023-02-04T12:33:02;99475.03;;;1.80;nan
63287;BME280;49410;55.708;37.522;2023-02-04T12:35:27;99486.09;;;1.77;nan
63287;BME280;49410;55.708;37.522;2023-02-04T12:37:53;99477.81;;;1.56;nan
63287;BME280;49410;55.708;37.522;2023-02-04T12:40:20;99482.97;;;1.59;nan
63287;BME280;49410;55.708;37.522;2023-02-04T12:42:45;99492.44;;;1.65;nan
63287;BME280;49410;55.708;37.522;2023-02-04T12:45:12;99481.25;;;1.58;nan
63287;BME280;49410;55.708;37.522;2023-02-04T12:47:39;99502.72;;;1.71;nan
63287;BME280;49410;55.708;37.522;2023-02-04T12:50:06;99492.53;;;1.63;nan
63287;BME280;49410;55.708;37.522;2023-02-04T12:52:31;99504.44;;;1.72;nan
63287;BME280;49410;55.708;37.522;2023-02-04T12:54:57;99503.09;;;1.66;nan
63287;BME280;49410;55.708;37.522;2023-02-04T12:57:24;99505.28;;;1.61;nan
63287;BME280;49410;55.708;37.522;2023-02-04T12:59:49;99500.59;;;1.52;nan
63287;BME280;49410;55.708;37.522;2023-02-04T13:02:15;99510.16;;;1.56;nan
63287;BME280;49410;55.708;37.522;2023-02-04T13:04:40;99509.75;;;1.49;nan
63287;BME280;49410;55.708;37.522;2023-02-04T13:07:07;99523.34;;;1.48;nan
63287;BME280;49410;55.708;37.522;2023-02-04T13:09:34;99521.22;;;1.40;nan
63287;BME280;49410;55.708;37.522;2023-02-04T13:11:59;99518.44;;;1.42;nan
63287;BME280;49410;55.708;37.522;2023-02-04T13:14:25;99530.28;;;1.39;nan
63287;BME280;49410;55.708;37.522;2023-02-04T13:16:50;99526.63;;;1.40;nan
63287;BME280;49410;55.708;37.522;2023-02-04T13:19:16;99537.41;;;1.40;nan
63287;BME280;49410;55.708;37.522;2023-02-04T13:21:41;99531.50;;;1.35;nan
63287;BME280;49410;55.708;37.522;2023-02-04T13:24:07;99513.84;;;1.31;nan
63287;BME280;49410;55.708;37.522;2023-02-04T13:26:32;99536.84;;;1.48;nan
63287;BME280;49410;55.708;37.522;2023-02-04T13:28:58;99534.25;;;1.46;nan
63287;BME280;49410;55.708;37.522;2023-02-04T13:31:23;99533.38;;;1.46;nan
63287;BME280;49410;55.708;37.522;2023-02-04T13:33:49;99526.53;;;1.42;nan
63287;BME280;49410;55.708;37.522;2023-02-04T13:36:14;99542.63;;;1.54;nan
63287;BME280;49410;55.708;37.522;2023-02-04T13:38:40;99538.69;;;1.47;nan
63287;BME280;49410;55.708;37.522;2023-02-04T13:41:06;99532.53;;;1.45;nan
63287;BME280;49410;55.708;37.522;2023-02-04T13:43:31;99543.47;;;1.55;nan
63287;BME280;49410;55.708;37.522;2023-02-04T13:45:57;99531.31;;;1.49;nan
63287;BME280;49410;55.708;37.522;2023-02-04T13:48:22;99543.94;;;1.49;nan
63287;BME280;49410;55.708;37.522;2023-02-04T13:50:48;99553.28;;;1.56;nan
63287;BME280;49410;55.708;37.522;2023-02-04T13:53:15;99548.25;;;1.51;nan
63287;BME280;49410;55.708;37.522;2023-02-04T13:55:41;99556.84;;;1.57;nan
63287;BME280;49410;55.708;37.522;2023-02-04T13:58:07;99562.34;;;1.55;nan
63287;BME280;49410;55.708;37.522;2023-02-04T14:00:32;99549.69;;;1.44;nan
63287;BME280;49410;55.708;37.522;2023-02-04T14:02:58;99549.56;;;1.46;nan
63287;BME280;49410;55.708;37.522;2023-02-04T14:05:23;99562.94;;;1.47;nan
63287;BME280;49410;55.708;37.522;2023-02-04T14:07:49;99576.84;;;1.41;nan
63287;BME280;49410;55.708;37.522;2023-02-04T14:10:16;99576.84;;;1.41;nan
63287;BME280;49410;55.708;37.522;2023-02-04T14:12:42;99583.13;;;1.42;nan
63287;BME280;49410;55.708;37.522;2023-02-04T14:15:08;99566.28;;;1.38;nan
63287;BME280;49410;55.708;37.522;2023-02-04T14:17:35;99584.59;;;1.46;nan
63287;BME280;49410;55.708;37.522;2023-02-04T14:20:00;99581.16;;;1.44;nan
63287;BME280;49410;55.708;37.522;2023-02-04T14:22:27;99569.66;;;1.29;nan
63287;BME280;49410;55.708;37.522;2023-02-04T14:24:52;99571.31;;;1.31;nan
63287;BME280;49410;55.708;37.522;2023-02-04T14:27:18;99578.91;;;1.37;nan
63287;BME280;49410;55.708;37.522;2023-02-04T14:29:43;99594.97;;;1.39;nan
63287;BME280;49410;55.708;37.522;2023-02-04T14:32:09;99598.25;;;1.31;nan
63287;BME280;49410;55.708;37.522;2023-02-04T14:34:34;99591.97;;;1.31;nan
63287;BME280;49410;55.708;37.522;2023-02-04T14:37:00;99599.22;;;1.30;nan
63287;BME280;49410;55.708;37.522;2023-02-04T14:39:25;99597.59;;;1.28;nan
63287;BME280;49410;55.708;37.522;2023-02-04T14:41:51;99607.72;;;1.37;nan
63287;BME280;49410;55.708;37.522;2023-02-04T14:44:16;99608.22;;;1.42;nan
63287;BME280;49410;55.708;37.522;2023-02-04T14:46:45;99601.09;;;1.41;nan
63287;BME280;49410;55.708;37.522;2023-02-04T14:49:16;99616.03;;;1.34;nan
63287;BME280;49410;55.708;37.522;2023-02-04T14:51:42;99624.50;;;1.41;nan
63287;BME280;49410;55.708;37.522;2023-02-04T14:54:07;99608.91;;;1.33;nan
63287;BME280;49410;55.708;37.522;2023-02-04T14:56:34;99620.09;;;1.39;nan
63287;BME280;49410;55.708;37.522;2023-02-04T14:58:59;99614.59;;;1.41;nan
63287;BME280;49410;55.708;37.522;2023-02-04T15:01:25;99622.31;;;1.46;nan
63287;BME280;49410;55.708;37.522;2023-02-04T15:03:52;99628.59;;;1.46;nan
63287;BME280;49410;55.708;37.522;2023-02-04T15:06:17;99631.91;;;1.50;nan
63287;BME280;49410;55.708;37.522;2023-02-04T15:08:43;99614.47;;;1.43;nan
63287;BME280;49410;55.708;37.522;2023-02-04T15:11:09;99623.53;;;1.42;nan
63287;BME280;49410;55.708;37.522;2023-02-04T15:13:35;99631.91;;;1.50;nan
63287;BME280;49410;55.708;37.522;2023-02-04T15:16:01;99642.34;;;1.54;nan
63287;BME280;49410;55.708;37.522;2023-02-04T15:18:26;99633.91;;;1.35;nan
63287;BME280;49410;55.708;37.522;2023-02-04T15:20:52;99633.50;;;1.28;nan